KLOT/LOT METAR and TAF weather

Enter ICAO airport designator
Station Type Date Time Source
KLOT METAR 2019/12/09 05:50 UTC NOAA

KLOT 090550Z AUTO 17007KT 10SM SCT016 BKN038 OVC120 07/06 A2974 RMK AO2 T00650058 10066 20049 400851010


Station Type Date Time Source
KLOT Decoded METAR 2019/12/09 05:50 UTC NOAA

Chicago/Romeoville, Lewis University Airport, IL, United States (KLOT) 41-36-30N 088-05-39W
Dec 09, 2019 - 12:50 AM EST / 2019.12.09 0550 UTC
Wind: from the S (170 degrees) at 8 MPH (7 KT):0
Visibility: 10 mile(s):0
Sky conditions: overcast
Temperature: 43.7 F (6.5 C)
Dew Point: 42.4 F (5.8 C)
Relative Humidity: 95%
Pressure (altimeter): 29.74 in. Hg (1007 hPa)
ob: KLOT 090550Z AUTO 17007KT 10SM SCT016 BKN038 OVC120 07/06 A2974 RMK AO2 T00650058 10066 20049 400851010
cycle: 6

Station Type Date Time Source
KLOT TAF UTC NOAA

Error!

Example: see airport list